createdAt,value
2018-11-12T00:01:51.376Z,86.83
2018-11-12T00:04:22.485Z,80.13
2018-11-12T00:06:54.126Z,75.60
2018-11-12T00:09:25.273Z,72.43
2018-11-12T00:11:57.205Z,86.83
2018-11-12T00:14:28.785Z,80.77
2018-11-12T00:16:59.560Z,73.30
2018-11-12T00:19:30.675Z,81.27
2018-11-12T00:22:01.507Z,77.83
2018-11-12T00:24:32.722Z,75.23
2018-11-12T00:27:03.509Z,89.50
2018-11-12T00:29:34.907Z,88.20
2018-11-12T00:32:05.912Z,83.13
2018-11-12T00:34:38.088Z,79.70
2018-11-12T00:37:10.497Z,91.97
2018-11-12T00:39:42.192Z,77.57
2018-11-12T00:42:13.307Z,87.20
2018-11-12T00:44:44.605Z,88.57
2018-11-12T00:47:16.001Z,68.40
2018-11-12T00:49:47.189Z,70.77
2018-11-12T00:52:18.152Z,77.23
2018-11-12T00:54:49.673Z,72.20
2018-11-12T00:57:20.875Z,90.30
2018-11-12T00:59:52.875Z,79.47
2018-11-12T01:02:24.137Z,76.23
2018-11-12T01:04:55.093Z,79.83
2018-11-12T01:07:26.671Z,75.13
2018-11-12T01:09:57.962Z,78.17
2018-11-12T01:12:29.626Z,81.83
2018-11-12T01:15:01.155Z,77.57
2018-11-12T01:17:31.991Z,74.40
2018-11-12T01:20:03.975Z,74.17
2018-11-12T01:22:36.461Z,76.90
2018-11-12T01:25:08.889Z,74.63
2018-11-12T01:27:41.571Z,79.53
2018-11-12T01:30:14.968Z,76.00
2018-11-12T01:32:46.554Z,70.10
2018-11-12T01:35:19.492Z,71.67
2018-11-12T01:37:51.346Z,74.27
2018-11-12T01:40:22.966Z,67.60
2018-11-12T01:42:54.232Z,74.10
2018-11-12T01:45:26.416Z,76.70
2018-11-12T01:47:57.357Z,72.90
2018-11-12T01:50:28.901Z,76.37
2018-11-12T01:53:00.499Z,76.23
2018-11-12T01:55:31.838Z,77.80
2018-11-12T01:58:03.216Z,76.90
2018-11-12T02:00:34.916Z,76.90
2018-11-12T02:03:05.960Z,73.77
2018-11-12T02:05:36.718Z,76.97
2018-11-12T02:08:08.351Z,73.90
2018-11-12T02:10:39.194Z,85.00
2018-11-12T02:13:10.189Z,81.53
2018-11-12T02:15:41.039Z,80.70
2018-11-12T02:18:12.115Z,73.40
2018-11-12T02:20:43.480Z,64.63
2018-11-12T02:23:14.658Z,68.67
2018-11-12T02:25:45.509Z,72.97
2018-11-12T02:28:16.829Z,63.37
2018-11-12T02:30:49.152Z,68.93
2018-11-12T02:33:20.285Z,71.60
2018-11-12T02:35:52.035Z,75.00
2018-11-12T02:38:23.101Z,62.20
2018-11-12T02:40:55.634Z,75.47
2018-11-12T02:43:27.018Z,74.57
2018-11-12T02:45:58.195Z,68.17
2018-11-12T02:48:29.826Z,65.07
2018-11-12T02:51:00.999Z,67.47
2018-11-12T02:53:32.572Z,66.60
2018-11-12T02:56:03.559Z,69.43
2018-11-12T02:58:34.536Z,70.10
2018-11-12T03:01:06.074Z,70.73
2018-11-12T03:03:36.980Z,60.70
2018-11-12T03:06:08.008Z,66.00
2018-11-12T03:08:39.309Z,62.03
2018-11-12T03:11:10.421Z,59.70
2018-11-12T03:13:41.420Z,66.07
2018-11-12T03:16:13.212Z,65.43
2018-11-12T03:18:44.219Z,60.73
2018-11-12T03:21:15.232Z,74.80
2018-11-12T03:23:46.431Z,83.57
2018-11-12T03:26:17.717Z,64.03
2018-11-12T03:28:49.088Z,73.20
2018-11-12T03:31:20.673Z,64.20
2018-11-12T03:33:52.919Z,65.37
2018-11-12T03:36:23.813Z,60.50
2018-11-12T03:38:55.445Z,61.13
2018-11-12T03:41:27.006Z,57.13
2018-11-12T03:43:58.442Z,69.93
2018-11-12T03:46:29.594Z,59.73
2018-11-12T03:49:01.255Z,72.10
2018-11-12T03:51:33.339Z,70.30
2018-11-12T03:54:05.096Z,66.40
2018-11-12T03:56:35.859Z,59.93
2018-11-12T03:59:07.434Z,63.47
2018-11-12T04:01:44.488Z,67.17
2018-11-12T04:04:17.239Z,68.50
2018-11-12T04:06:49.192Z,60.97
2018-11-12T04:09:22.106Z,67.07
2018-11-12T04:11:52.935Z,72.73
2018-11-12T04:14:24.324Z,59.93
2018-11-12T04:16:54.989Z,60.37
2018-11-12T04:19:26.669Z,56.70
2018-11-12T04:21:57.233Z,61.43
2018-11-12T04:24:28.388Z,65.50
2018-11-12T04:27:00.683Z,67.93
2018-11-12T04:29:32.163Z,68.03
2018-11-12T04:32:03.547Z,59.80
2018-11-12T04:34:34.918Z,62.27
2018-11-12T04:37:05.679Z,64.83
2018-11-12T04:39:36.986Z,70.00
2018-11-12T04:42:08.474Z,65.40
2018-11-12T04:44:39.190Z,64.83
2018-11-12T04:47:10.635Z,73.90
2018-11-12T04:49:41.889Z,71.90
2018-11-12T04:52:13.177Z,67.40
2018-11-12T04:54:44.215Z,76.67
2018-11-12T04:57:14.557Z,76.23
2018-11-12T04:59:46.630Z,80.43
2018-11-12T05:02:17.792Z,70.73
2018-11-12T05:04:49.109Z,74.33
2018-11-12T05:07:20.210Z,67.30
2018-11-12T05:09:51.724Z,75.47
2018-11-12T05:12:23.559Z,74.77
2018-11-12T05:14:54.841Z,74.30
2018-11-12T05:17:25.672Z,72.07
2018-11-12T05:19:57.069Z,63.53
2018-11-12T05:22:27.696Z,76.33
2018-11-12T05:24:58.470Z,70.93
2018-11-12T05:27:29.409Z,78.20
2018-11-12T05:30:00.988Z,75.37
2018-11-12T05:32:32.508Z,74.77
2018-11-12T05:35:03.153Z,73.03
2018-11-12T05:37:34.702Z,78.60
2018-11-12T05:40:07.369Z,82.83
2018-11-12T05:42:38.422Z,71.90
2018-11-12T05:45:10.176Z,78.43
2018-11-12T05:47:42.726Z,75.43
2018-11-12T05:50:15.798Z,83.47
2018-11-12T05:52:48.689Z,90.57
2018-11-12T05:55:22.323Z,78.20
2018-11-12T05:57:53.834Z,81.00
2018-11-12T06:00:30.213Z,84.03
2018-11-12T06:03:01.314Z,78.27
2018-11-12T06:05:32.435Z,79.00
2018-11-12T06:08:03.831Z,75.57
2018-11-12T06:10:35.570Z,70.90
2018-11-12T06:13:07.174Z,70.23
2018-11-12T06:15:39.277Z,68.40
2018-11-12T06:18:10.249Z,67.03
2018-11-12T06:20:41.662Z,77.37
2018-11-12T06:23:12.985Z,67.40
2018-11-12T06:25:44.340Z,79.73
2018-11-12T06:28:16.048Z,69.63
2018-11-12T06:30:47.811Z,73.20
2018-11-12T06:33:19.764Z,82.40
2018-11-12T06:35:51.087Z,84.53
2018-11-12T06:38:22.352Z,76.07
2018-11-12T06:40:53.392Z,81.33
2018-11-12T06:43:24.948Z,81.87
2018-11-12T06:45:56.206Z,81.60
2018-11-12T06:48:27.740Z,79.53
2018-11-12T06:50:58.990Z,68.30
2018-11-12T06:53:29.511Z,60.07
2018-11-12T06:56:00.687Z,57.07
2018-11-12T06:58:32.112Z,48.13
2018-11-12T07:01:02.914Z,51.80
2018-11-12T07:03:33.319Z,56.10
2018-11-12T07:06:05.549Z,59.43
2018-11-12T07:08:35.829Z,55.67
2018-11-12T07:11:07.111Z,58.00
2018-11-12T07:13:38.264Z,53.53
2018-11-12T07:16:09.417Z,54.70
2018-11-12T07:18:40.535Z,55.37
2018-11-12T07:21:11.709Z,51.90
2018-11-12T07:23:42.720Z,51.83
2018-11-12T07:26:13.791Z,59.93
2018-11-12T07:28:45.218Z,57.67
2018-11-12T07:31:16.322Z,59.17
2018-11-12T07:33:47.431Z,61.53
2018-11-12T07:36:19.168Z,55.20
2018-11-12T07:38:49.873Z,56.53
2018-11-12T07:41:22.391Z,54.60
2018-11-12T07:43:53.989Z,54.93
2018-11-12T07:46:24.777Z,49.50
2018-11-12T07:48:55.565Z,51.90
2018-11-12T07:51:26.141Z,49.63
2018-11-12T07:53:57.315Z,49.87
2018-11-12T07:56:29.290Z,48.20
2018-11-12T07:59:00.990Z,51.63
2018-11-12T08:01:32.831Z,47.40
2018-11-12T08:04:04.518Z,43.93
2018-11-12T08:06:36.673Z,45.90
2018-11-12T08:09:10.484Z,42.53
2018-11-12T08:11:42.864Z,43.33
2018-11-12T08:14:14.446Z,41.60
2018-11-12T08:16:45.483Z,41.97
2018-11-12T08:19:17.464Z,43.03
2018-11-12T08:21:48.915Z,44.03
2018-11-12T08:24:20.569Z,44.17
2018-11-12T08:26:52.149Z,44.10
2018-11-12T08:29:22.997Z,40.80
2018-11-12T08:31:54.388Z,42.67
2018-11-12T08:34:26.193Z,40.77
2018-11-12T08:36:57.793Z,42.17
2018-11-12T08:39:28.814Z,41.47
2018-11-12T08:41:59.960Z,40.50
2018-11-12T08:44:30.668Z,42.47
2018-11-12T08:47:01.490Z,40.53
2018-11-12T08:49:32.897Z,39.00
2018-11-12T08:52:04.275Z,39.53
2018-11-12T08:54:35.157Z,38.77
2018-11-12T08:57:06.297Z,38.97
2018-11-12T08:59:37.738Z,35.47
2018-11-12T09:02:08.770Z,35.87
2018-11-12T09:04:40.276Z,35.00
2018-11-12T09:07:11.031Z,36.30
2018-11-12T09:09:41.892Z,35.13
2018-11-12T09:12:13.339Z,33.53
2018-11-12T09:14:44.912Z,36.70
2018-11-12T09:17:16.423Z,36.83
2018-11-12T09:19:48.286Z,35.63
2018-11-12T09:22:19.390Z,36.90
2018-11-12T09:24:50.291Z,36.87
2018-11-12T09:27:21.086Z,39.03
2018-11-12T09:29:53.004Z,38.57
2018-11-12T09:32:24.375Z,38.60
2018-11-12T09:34:57.097Z,37.87
2018-11-12T09:37:28.906Z,36.50
2018-11-12T09:40:00.233Z,34.97
2018-11-12T09:42:31.437Z,33.83
2018-11-12T09:45:03.205Z,34.33
2018-11-12T09:47:35.009Z,34.40
2018-11-12T09:50:06.283Z,34.63
2018-11-12T09:52:37.815Z,33.93
2018-11-12T09:55:10.662Z,33.53
2018-11-12T09:57:44.151Z,34.93
2018-11-12T10:00:16.901Z,33.70
2018-11-12T10:02:50.713Z,35.43
2018-11-12T10:05:22.288Z,34.10
2018-11-12T10:07:55.166Z,34.03
2018-11-12T10:11:01.333Z,34.93
2018-11-12T10:13:33.574Z,32.43
2018-11-12T10:16:05.357Z,33.97
2018-11-12T10:18:32.030Z,34.67
2018-11-12T10:21:03.093Z,34.83
2018-11-12T10:23:33.837Z,32.50
2018-11-12T10:26:05.067Z,31.27
2018-11-12T10:28:36.350Z,31.40
2018-11-12T10:31:07.933Z,29.70
2018-11-12T10:33:39.437Z,28.50
2018-11-12T10:36:10.954Z,27.63
2018-11-12T10:38:42.828Z,29.43
2018-11-12T10:41:14.499Z,33.37
2018-11-12T10:43:46.249Z,26.10
2018-11-12T10:46:17.753Z,25.63
2018-11-12T10:48:49.313Z,26.63
2018-11-12T10:51:21.004Z,26.33
2018-11-12T10:53:52.803Z,24.80
2018-11-12T10:56:25.322Z,26.27
2018-11-12T10:58:56.555Z,24.30
2018-11-12T11:01:37.037Z,23.80
2018-11-12T11:04:12.303Z,23.47
2018-11-12T11:06:44.781Z,24.60
2018-11-12T11:09:15.613Z,24.50
2018-11-12T11:11:50.738Z,24.70
2018-11-12T11:14:22.522Z,23.60
2018-11-12T11:16:55.324Z,21.57
2018-11-12T11:19:27.580Z,23.17
2018-11-12T11:21:59.756Z,22.40
2018-11-12T11:24:30.880Z,22.60
2018-11-12T11:27:03.360Z,22.23
2018-11-12T11:29:35.469Z,24.40
2018-11-12T11:32:06.976Z,23.53
2018-11-12T11:34:39.622Z,21.47
2018-11-12T11:37:11.317Z,22.97
2018-11-12T11:39:42.402Z,22.77
2018-11-12T11:42:14.050Z,23.07
2018-11-12T11:44:45.862Z,22.87
2018-11-12T11:47:19.242Z,24.13
2018-11-12T11:49:50.838Z,22.87
2018-11-12T11:52:22.071Z,21.13
2018-11-12T11:54:54.488Z,22.37
2018-11-12T11:57:25.688Z,23.27
2018-11-12T11:59:56.677Z,25.23
2018-11-12T12:02:28.952Z,21.80
2018-11-12T12:05:00.171Z,21.10
2018-11-12T12:07:30.450Z,21.30
2018-11-12T12:10:01.299Z,21.43
2018-11-12T12:12:35.632Z,21.97
2018-11-12T12:15:08.171Z,26.43
2018-11-12T12:17:41.305Z,26.00
2018-11-12T12:20:20.057Z,27.70
2018-11-12T12:22:51.529Z,29.33
2018-11-12T12:25:23.982Z,30.67
2018-11-12T12:27:55.361Z,29.60
2018-11-12T12:30:28.030Z,30.73
2018-11-12T12:32:59.754Z,27.67
2018-11-12T12:35:30.752Z,29.40
2018-11-12T12:38:01.748Z,29.67
2018-11-12T12:40:33.472Z,27.33
2018-11-12T12:43:04.932Z,29.87
2018-11-12T12:45:36.549Z,30.00
2018-11-12T12:48:08.217Z,28.15
2018-11-12T12:50:39.814Z,27.17
2018-11-12T12:53:12.054Z,28.73
2018-11-12T12:55:43.790Z,27.20
2018-11-12T12:58:15.158Z,30.97
2018-11-12T13:00:45.874Z,28.57
2018-11-12T13:03:25.183Z,31.80
2018-11-12T13:05:56.914Z,28.57
2018-11-12T13:08:27.550Z,30.40
2018-11-12T13:10:58.709Z,30.40
2018-11-12T13:13:29.381Z,27.87
2018-11-12T13:17:19.294Z,30.30
2018-11-12T13:19:50.959Z,29.03
2018-11-12T13:22:21.872Z,28.40
2018-11-12T13:24:52.828Z,28.93
2018-11-12T13:27:24.945Z,29.53
2018-11-12T13:29:56.010Z,29.60
2018-11-12T13:32:28.105Z,31.47
2018-11-12T13:34:59.749Z,28.60
2018-11-12T13:37:30.536Z,28.90
2018-11-12T13:40:01.655Z,29.57
2018-11-12T13:42:32.996Z,24.30
2018-11-12T13:45:04.215Z,24.00
2018-11-12T13:47:36.464Z,22.23
2018-11-12T13:50:12.269Z,24.50
2018-11-12T13:52:43.970Z,24.57
2018-11-12T13:55:15.974Z,24.77
2018-11-12T13:57:48.125Z,25.43
2018-11-12T14:00:21.301Z,25.90
2018-11-12T14:02:52.868Z,24.60
2018-11-12T14:05:25.124Z,23.50
2018-11-12T14:07:55.630Z,24.23
2018-11-12T14:10:28.211Z,23.80
2018-11-12T14:12:59.208Z,24.30
2018-11-12T14:15:30.864Z,23.00
2018-11-12T14:18:02.422Z,24.13
2018-11-12T14:20:34.281Z,22.93
2018-11-12T14:23:06.401Z,23.50
2018-11-12T14:25:37.895Z,25.77
2018-11-12T14:28:09.146Z,24.50
2018-11-12T14:30:41.870Z,24.10
2018-11-12T14:33:14.482Z,23.73
2018-11-12T14:35:46.160Z,24.23
2018-11-12T14:38:18.146Z,25.47
2018-11-12T14:40:51.357Z,24.63
2018-11-12T14:43:22.985Z,24.77
2018-11-12T14:45:54.455Z,32.03
2018-11-12T14:48:26.109Z,23.20
2018-11-12T14:50:57.831Z,23.77
2018-11-12T14:53:28.883Z,23.10
2018-11-12T14:56:00.145Z,22.50
2018-11-12T14:58:31.872Z,22.50
2018-11-12T15:01:03.063Z,24.53
2018-11-12T15:03:33.994Z,22.10
2018-11-12T15:06:04.489Z,24.43
2018-11-12T15:08:36.297Z,23.30
2018-11-12T15:11:07.896Z,22.17
2018-11-12T15:13:40.040Z,23.57
2018-11-12T15:16:11.462Z,21.87
2018-11-12T15:18:43.000Z,22.47
2018-11-12T15:21:14.048Z,21.63
2018-11-12T15:23:46.150Z,23.80
2018-11-12T15:26:17.413Z,25.43
2018-11-12T15:28:49.740Z,23.87
2018-11-12T15:31:21.173Z,23.70
2018-11-12T15:33:53.093Z,21.07
2018-11-12T15:36:25.790Z,22.73
2018-11-12T15:38:57.265Z,23.40
2018-11-12T15:41:28.767Z,22.37
2018-11-12T15:44:00.380Z,23.47
2018-11-12T15:46:32.723Z,23.60
2018-11-12T15:49:03.844Z,24.77
2018-11-12T15:51:35.268Z,24.47
2018-11-12T15:54:07.175Z,27.67
2018-11-12T15:56:39.363Z,26.53
2018-11-12T15:59:11.495Z,23.87
2018-11-12T16:01:43.531Z,26.30
2018-11-12T16:04:14.526Z,26.80
2018-11-12T16:06:46.253Z,23.70
2018-11-12T16:09:17.919Z,24.63
2018-11-12T16:11:50.078Z,24.43
2018-11-12T16:14:22.248Z,25.80
2018-11-12T16:16:54.356Z,23.80
2018-11-12T16:19:26.964Z,23.87
2018-11-12T16:21:58.726Z,24.57
2018-11-12T16:24:31.064Z,25.33
2018-11-12T16:27:01.521Z,25.60
2018-11-12T16:29:39.272Z,19.70
2018-11-12T16:32:12.089Z,23.27
2018-11-12T16:34:43.559Z,22.00
2018-11-12T16:37:14.831Z,24.00
2018-11-12T16:39:46.052Z,23.87
2018-11-12T16:42:17.716Z,26.40
2018-11-12T16:44:49.371Z,23.57
2018-11-12T16:47:21.609Z,26.00
2018-11-12T16:49:52.989Z,27.53
2018-11-12T16:52:24.780Z,28.23
2018-11-12T16:54:56.539Z,29.17
2018-11-12T16:57:27.960Z,27.13
2018-11-12T16:59:58.856Z,32.33
2018-11-12T17:02:30.132Z,29.17
2018-11-12T17:05:01.956Z,28.00
2018-11-12T17:07:32.789Z,30.23
2018-11-12T17:10:04.104Z,28.50
2018-11-12T17:12:35.928Z,28.07
2018-11-12T17:15:07.910Z,26.80
2018-11-12T17:17:39.400Z,25.17
2018-11-12T17:20:13.452Z,29.10
2018-11-12T17:22:44.648Z,28.50
2018-11-12T17:25:16.783Z,29.93
2018-11-12T17:27:48.509Z,27.10
2018-11-12T17:30:22.447Z,25.23
2018-11-12T17:32:54.284Z,27.23
2018-11-12T17:35:25.270Z,26.43
2018-11-12T17:37:56.850Z,28.07
2018-11-12T17:40:28.631Z,28.10
2018-11-12T17:42:59.430Z,34.37
2018-11-12T17:45:31.390Z,31.10
2018-11-12T17:48:02.392Z,30.03
2018-11-12T17:50:34.338Z,31.27
2018-11-12T17:53:06.270Z,31.40
2018-11-12T17:55:37.571Z,28.33
2018-11-12T17:58:09.416Z,29.77
2018-11-12T18:00:41.016Z,33.43
2018-11-12T18:03:12.632Z,28.30
2018-11-12T18:05:44.866Z,29.30
2018-11-12T18:08:16.685Z,30.80
2018-11-12T18:10:48.270Z,31.07
2018-11-12T18:13:18.890Z,31.37
2018-11-12T18:15:51.476Z,30.50
2018-11-12T18:18:22.676Z,38.03
2018-11-12T18:20:53.984Z,34.93
2018-11-12T18:23:25.125Z,32.30
2018-11-12T18:25:56.151Z,31.63
2018-11-12T18:28:27.292Z,37.60
2018-11-12T18:30:58.966Z,32.77
2018-11-12T18:33:30.334Z,35.03
2018-11-12T18:36:01.710Z,33.57
2018-11-12T18:38:32.698Z,33.23
2018-11-12T18:41:03.693Z,34.07
2018-11-12T18:43:35.657Z,32.13
2018-11-12T18:46:07.552Z,35.90
2018-11-12T18:48:39.069Z,33.73
2018-11-12T18:51:10.407Z,31.87
2018-11-12T18:53:41.752Z,35.77
2018-11-12T18:56:13.912Z,35.97
2018-11-12T18:58:45.628Z,32.93
2018-11-12T19:01:16.770Z,34.63
2018-11-12T19:03:47.987Z,36.03
2018-11-12T19:06:20.629Z,42.23
2018-11-12T19:08:52.984Z,38.80
2018-11-12T19:11:24.389Z,39.63
2018-11-12T19:13:55.904Z,42.10
2018-11-12T19:16:27.743Z,38.67
2018-11-12T19:18:58.711Z,40.50
2018-11-12T19:21:30.331Z,37.00
2018-11-12T19:24:01.750Z,34.43
2018-11-12T19:26:33.190Z,38.37
2018-11-12T19:29:05.745Z,36.10
2018-11-12T19:31:37.183Z,40.20
2018-11-12T19:34:08.691Z,38.20
2018-11-12T19:36:40.788Z,36.97
2018-11-12T19:39:12.824Z,40.13
2018-11-12T19:41:44.795Z,38.50
2018-11-12T19:44:17.734Z,37.50
2018-11-12T19:46:49.428Z,36.70
2018-11-12T19:49:21.192Z,42.23
2018-11-12T19:51:52.814Z,40.67
2018-11-12T19:54:25.019Z,40.97
2018-11-12T19:56:56.436Z,41.00
2018-11-12T19:59:28.201Z,36.43
2018-11-12T20:01:59.799Z,38.80
2018-11-12T20:04:32.077Z,41.33
2018-11-12T20:07:03.642Z,40.63
2018-11-12T20:09:35.190Z,38.67
2018-11-12T20:12:07.103Z,40.17
2018-11-12T20:14:38.955Z,42.50
2018-11-12T20:17:11.405Z,38.93
2018-11-12T20:19:42.810Z,50.23
2018-11-12T20:22:14.833Z,45.43
2018-11-12T20:24:47.798Z,47.13
2018-11-12T20:27:40.253Z,43.43
2018-11-12T20:30:16.200Z,44.90
2018-11-12T20:32:50.116Z,47.80
2018-11-12T20:35:22.993Z,43.77
2018-11-12T20:37:54.910Z,46.07
2018-11-12T20:40:26.952Z,44.53
2018-11-12T20:42:59.002Z,49.90
2018-11-12T20:45:31.225Z,48.17
2018-11-12T20:48:03.213Z,41.37
2018-11-12T20:50:35.581Z,47.80
2018-11-12T20:53:08.390Z,44.77
2018-11-12T20:55:43.584Z,99.23
2018-11-12T20:58:17.219Z,56.50
2018-11-12T21:00:51.817Z,62.70
2018-11-12T21:03:24.136Z,66.00
2018-11-12T21:05:57.360Z,57.83
2018-11-12T21:08:29.115Z,63.50
2018-11-12T21:11:00.509Z,53.60
2018-11-12T21:13:35.501Z,60.27
2018-11-12T21:16:09.429Z,58.87
2018-11-12T21:18:41.471Z,58.40
2018-11-12T21:21:13.797Z,54.10
2018-11-12T21:23:45.301Z,53.13
2018-11-12T21:26:19.270Z,54.00
2018-11-12T21:28:52.491Z,61.40
2018-11-12T21:31:24.950Z,56.10
2018-11-12T21:33:57.889Z,54.27
2018-11-12T21:36:30.607Z,129.07
2018-11-12T21:39:02.240Z,63.73
2018-11-12T21:41:34.750Z,88.10
2018-11-12T21:44:08.352Z,79.60
2018-11-12T21:46:42.968Z,59.47
2018-11-12T21:49:15.553Z,60.47
2018-11-12T21:51:48.397Z,60.03
2018-11-12T21:54:20.937Z,63.83
2018-11-12T21:56:53.030Z,105.70
2018-11-12T21:59:24.289Z,80.73
2018-11-12T22:01:58.252Z,58.63
2018-11-12T22:04:31.750Z,54.30
2018-11-12T22:07:03.446Z,54.50
2018-11-12T22:09:37.554Z,55.33
2018-11-12T22:12:09.026Z,55.10
2018-11-12T22:14:40.391Z,53.33
2018-11-12T22:17:13.490Z,53.70
2018-11-12T22:19:45.891Z,55.17
2018-11-12T22:22:17.858Z,58.80
2018-11-12T22:24:48.214Z,59.50
2018-11-12T22:27:19.271Z,53.53
2018-11-12T22:29:50.418Z,54.43
2018-11-12T22:32:21.921Z,60.00
2018-11-12T22:34:55.574Z,56.40
2018-11-12T22:37:26.791Z,65.47
2018-11-12T22:39:58.270Z,66.47
2018-11-12T22:42:30.009Z,62.40
2018-11-12T22:45:01.132Z,55.60
2018-11-12T22:47:32.608Z,58.70
2018-11-12T22:50:05.575Z,54.50
2018-11-12T22:52:37.025Z,66.33
2018-11-12T22:55:08.585Z,72.73
2018-11-12T22:57:40.351Z,59.67
2018-11-12T23:00:21.305Z,59.20
2018-11-12T23:02:52.725Z,53.00
2018-11-12T23:05:24.338Z,54.00
2018-11-12T23:07:56.486Z,59.07
2018-11-12T23:10:27.531Z,66.20
2018-11-12T23:12:58.153Z,63.83
2018-11-12T23:15:29.511Z,62.80
2018-11-12T23:18:00.378Z,66.73
2018-11-12T23:20:31.900Z,60.93
2018-11-12T23:23:02.911Z,54.27
2018-11-12T23:25:34.065Z,62.20
2018-11-12T23:28:05.256Z,57.10
2018-11-12T23:30:35.961Z,57.43
2018-11-12T23:33:09.070Z,65.83
2018-11-12T23:35:40.550Z,56.93
2018-11-12T23:38:11.338Z,57.50
2018-11-12T23:40:42.669Z,59.80
2018-11-12T23:43:13.675Z,66.27
2018-11-12T23:45:44.371Z,70.27
2018-11-12T23:48:17.625Z,62.67
2018-11-12T23:50:48.127Z,141.43
2018-11-12T23:53:19.365Z,92.13
2018-11-12T23:55:50.507Z,61.23
2018-11-12T23:58:21.669Z,70.03
